createdAt,value
2023-11-30T00:02:25.341Z,63.80
2023-11-30T00:04:51.985Z,56.13
2023-11-30T00:07:18.630Z,53.38
2023-11-30T00:09:45.142Z,55.67
2023-11-30T00:12:11.638Z,51.22
2023-11-30T00:14:38.217Z,59.35
2023-11-30T00:17:04.900Z,51.75
2023-11-30T00:19:31.421Z,43.22
2023-11-30T00:21:57.906Z,58.20
2023-11-30T00:24:24.946Z,51.33
2023-11-30T00:26:51.460Z,52.38
2023-11-30T00:29:17.917Z,48.42
2023-11-30T00:31:44.639Z,46.20
2023-11-30T00:34:11.145Z,50.63
2023-11-30T00:36:37.718Z,50.60
2023-11-30T00:39:04.971Z,48.25
2023-11-30T00:41:31.959Z,48.10
2023-11-30T00:43:58.405Z,54.10
2023-11-30T00:46:25.182Z,44.88
2023-11-30T00:48:51.834Z,46.33
2023-11-30T00:51:18.604Z,50.13
2023-11-30T00:53:45.246Z,42.70
2023-11-30T00:56:12.453Z,45.53
2023-11-30T00:58:39.075Z,45.33
2023-11-30T01:01:05.672Z,45.60
2023-11-30T01:03:32.420Z,50.97
2023-11-30T01:05:59.020Z,56.78
2023-11-30T01:08:25.505Z,46.17
2023-11-30T01:10:51.977Z,39.50
2023-11-30T01:13:18.497Z,41.15
2023-11-30T01:15:45.131Z,42.63
2023-11-30T01:18:11.777Z,45.30
2023-11-30T01:20:38.347Z,39.92
2023-11-30T01:23:05.671Z,49.30
2023-11-30T01:25:32.303Z,46.75
2023-11-30T01:27:58.792Z,52.10
2023-11-30T01:30:25.265Z,59.70
2023-11-30T01:32:51.791Z,55.95
2023-11-30T01:35:18.354Z,50.70
2023-11-30T01:37:44.875Z,59.38
2023-11-30T01:40:11.479Z,47.67
2023-11-30T01:42:38.350Z,49.00
2023-11-30T01:45:05.119Z,52.22
2023-11-30T01:47:32.338Z,53.90
2023-11-30T01:49:59.593Z,49.70
2023-11-30T01:52:26.187Z,46.58
2023-11-30T01:54:52.915Z,53.63
2023-11-30T01:57:19.664Z,49.83
2023-11-30T01:59:46.692Z,48.17
2023-11-30T02:02:13.676Z,43.38
2023-11-30T02:04:41.978Z,45.08
2023-11-30T02:07:08.532Z,46.45
2023-11-30T02:09:35.087Z,40.50
2023-11-30T02:12:01.598Z,48.78
2023-11-30T02:14:28.160Z,52.00
2023-11-30T02:16:54.690Z,43.13
2023-11-30T02:19:21.230Z,49.85
2023-11-30T02:21:51.090Z,45.92
2023-11-30T02:24:17.782Z,49.55
2023-11-30T02:26:44.307Z,49.13
2023-11-30T02:29:10.917Z,43.97
2023-11-30T02:31:37.555Z,47.60
2023-11-30T02:34:04.054Z,57.38
2023-11-30T02:36:30.601Z,60.22
2023-11-30T02:38:57.074Z,41.72
2023-11-30T02:41:23.736Z,51.97
2023-11-30T02:43:50.218Z,54.58
2023-11-30T02:46:16.707Z,49.20
2023-11-30T02:48:43.267Z,65.07
2023-11-30T02:51:11.272Z,50.78
2023-11-30T02:53:37.793Z,52.92
2023-11-30T02:56:04.437Z,49.00
2023-11-30T02:58:30.870Z,49.53
2023-11-30T03:00:57.362Z,50.63
2023-11-30T03:03:24.024Z,49.40
2023-11-30T03:05:50.612Z,50.40
2023-11-30T03:08:17.157Z,55.00
2023-11-30T03:10:43.637Z,55.63
2023-11-30T03:13:10.417Z,43.33
2023-11-30T03:15:43.653Z,47.85
2023-11-30T03:18:10.201Z,45.53
2023-11-30T03:20:37.214Z,42.05
2023-11-30T03:23:04.296Z,50.55
2023-11-30T03:25:32.545Z,43.72
2023-11-30T03:27:59.009Z,48.78
2023-11-30T03:30:25.500Z,50.47
2023-11-30T03:32:52.172Z,65.70
2023-11-30T03:35:18.656Z,53.83
2023-11-30T03:37:45.179Z,45.80
2023-11-30T03:40:12.052Z,46.28
2023-11-30T03:42:38.851Z,51.20
2023-11-30T03:45:05.592Z,48.75
2023-11-30T03:47:32.099Z,45.30
2023-11-30T03:49:58.812Z,51.60
2023-11-30T03:52:25.412Z,44.65
2023-11-30T03:54:51.886Z,49.80
2023-11-30T03:57:18.415Z,46.20
2023-11-30T03:59:44.929Z,49.40
2023-11-30T04:02:11.462Z,57.33
2023-11-30T04:04:41.495Z,49.85
2023-11-30T04:07:08.136Z,49.63
2023-11-30T04:09:37.229Z,48.85
2023-11-30T04:12:04.062Z,45.95
2023-11-30T04:14:30.488Z,47.50
2023-11-30T04:16:56.989Z,42.22
2023-11-30T04:19:23.522Z,39.97
2023-11-30T04:21:50.168Z,51.95
2023-11-30T04:24:17.309Z,46.40
2023-11-30T04:26:43.853Z,55.08
2023-11-30T04:29:10.304Z,48.15
2023-11-30T04:31:36.810Z,49.88
2023-11-30T04:34:03.313Z,48.55
2023-11-30T04:36:29.991Z,52.65
2023-11-30T04:38:57.142Z,55.35
2023-11-30T04:41:23.655Z,49.42
2023-11-30T04:43:50.110Z,48.20
2023-11-30T04:46:16.787Z,44.92
2023-11-30T04:48:43.356Z,49.90
2023-11-30T04:51:09.925Z,54.00
2023-11-30T04:53:36.406Z,56.53
2023-11-30T04:56:03.078Z,50.33
2023-11-30T04:58:29.542Z,50.15
2023-11-30T05:00:56.054Z,46.70
2023-11-30T05:03:22.820Z,51.10
2023-11-30T05:05:49.649Z,45.88
2023-11-30T05:08:16.118Z,45.00
2023-11-30T05:10:42.830Z,43.60
2023-11-30T05:13:09.279Z,52.55
2023-11-30T05:15:39.432Z,47.10
2023-11-30T05:18:06.304Z,60.60
2023-11-30T05:20:33.116Z,50.17
2023-11-30T05:22:59.608Z,48.45
2023-11-30T05:25:26.023Z,53.83
2023-11-30T05:27:52.508Z,47.33
2023-11-30T05:30:19.251Z,54.25
2023-11-30T05:32:45.755Z,60.47
2023-11-30T05:35:12.470Z,48.65
2023-11-30T05:37:38.969Z,51.92
2023-11-30T05:40:06.813Z,51.58
2023-11-30T05:42:33.357Z,50.67
2023-11-30T05:44:59.898Z,56.08
2023-11-30T05:47:26.507Z,51.63
2023-11-30T05:49:53.454Z,50.80
2023-11-30T05:52:20.122Z,47.35
2023-11-30T05:54:46.724Z,46.00
2023-11-30T05:57:13.318Z,50.47
2023-11-30T05:59:40.049Z,48.03
2023-11-30T06:02:06.762Z,52.53
2023-11-30T06:04:33.433Z,52.67
2023-11-30T06:07:00.002Z,47.53
2023-11-30T06:09:26.546Z,44.00
2023-11-30T06:11:53.586Z,64.55
2023-11-30T06:14:20.630Z,53.85
2023-11-30T06:16:47.135Z,45.58
2023-11-30T06:19:13.654Z,50.00
2023-11-30T06:21:40.357Z,45.45
2023-11-30T06:24:07.792Z,49.05
2023-11-30T06:26:34.734Z,61.60
2023-11-30T06:29:01.358Z,49.85
2023-11-30T06:31:27.870Z,49.00
2023-11-30T06:33:54.397Z,46.67
2023-11-30T06:36:20.911Z,51.20
2023-11-30T06:38:47.690Z,48.47
2023-11-30T06:41:14.615Z,62.20
2023-11-30T06:43:41.806Z,46.28
2023-11-30T06:46:08.484Z,47.00
2023-11-30T06:48:35.231Z,56.30
2023-11-30T06:51:02.046Z,47.35
2023-11-30T06:53:28.628Z,50.45
2023-11-30T06:55:55.325Z,51.45
2023-11-30T06:58:21.843Z,50.15
2023-11-30T07:00:50.327Z,48.92
2023-11-30T07:03:17.342Z,44.97
2023-11-30T07:05:43.958Z,46.22
2023-11-30T07:08:10.487Z,47.22
2023-11-30T07:10:37.073Z,48.63
2023-11-30T07:13:03.594Z,40.25
2023-11-30T07:15:30.110Z,42.88
2023-11-30T07:17:56.745Z,52.85
2023-11-30T07:20:23.462Z,49.40
2023-11-30T07:22:50.363Z,45.92
2023-11-30T07:25:17.061Z,47.78
2023-11-30T07:27:43.692Z,38.15
2023-11-30T07:30:10.816Z,41.55
2023-11-30T07:32:37.640Z,42.83
2023-11-30T07:35:07.158Z,39.28
2023-11-30T07:37:33.628Z,38.50
2023-11-30T07:40:01.204Z,39.58
2023-11-30T07:42:33.009Z,39.08
2023-11-30T07:45:05.019Z,40.00
2023-11-30T07:47:32.194Z,38.90
2023-11-30T07:49:59.021Z,36.83
2023-11-30T07:52:25.590Z,47.53
2023-11-30T07:54:52.130Z,42.83
2023-11-30T07:57:19.392Z,38.65
2023-11-30T07:59:45.921Z,42.15
2023-11-30T08:02:13.081Z,38.50
2023-11-30T08:04:39.893Z,32.45
2023-11-30T08:07:06.508Z,36.15
2023-11-30T08:09:33.187Z,40.70
2023-11-30T08:11:59.778Z,41.55
2023-11-30T08:14:26.370Z,36.55
2023-11-30T08:16:52.926Z,37.00
2023-11-30T08:19:19.476Z,41.72
2023-11-30T08:21:48.369Z,45.17
2023-11-30T08:24:15.110Z,45.00
2023-11-30T08:26:43.247Z,40.95
2023-11-30T08:29:09.867Z,37.45
2023-11-30T08:31:37.883Z,36.42
2023-11-30T08:34:04.748Z,37.30
2023-11-30T08:36:31.380Z,40.08
2023-11-30T08:38:58.089Z,41.92
2023-11-30T08:41:24.753Z,46.72
2023-11-30T08:43:51.294Z,40.13
2023-11-30T08:46:17.869Z,35.85
2023-11-30T08:48:44.470Z,32.42
2023-11-30T08:51:12.277Z,36.97
2023-11-30T08:53:38.917Z,35.10
2023-11-30T08:56:05.659Z,30.02
2023-11-30T08:58:32.247Z,35.95
2023-11-30T09:00:58.767Z,34.58
2023-11-30T09:03:26.368Z,43.63
2023-11-30T09:05:53.988Z,37.25
2023-11-30T09:08:20.513Z,38.30
2023-11-30T09:10:47.096Z,34.65
2023-11-30T09:13:13.729Z,34.97
2023-11-30T09:15:40.277Z,33.47
2023-11-30T09:18:09.056Z,32.80
2023-11-30T09:20:36.210Z,26.80
2023-11-30T09:23:04.062Z,30.23
2023-11-30T09:25:30.826Z,37.17
2023-11-30T09:28:00.797Z,39.63
2023-11-30T09:30:27.935Z,31.77
2023-11-30T09:32:54.891Z,35.55
2023-11-30T09:35:21.506Z,36.22
2023-11-30T09:37:49.562Z,35.22
2023-11-30T09:40:16.450Z,36.17
2023-11-30T09:42:43.075Z,35.42
2023-11-30T09:45:10.128Z,35.25
2023-11-30T09:47:37.021Z,33.05
2023-11-30T09:50:04.041Z,36.42
2023-11-30T09:52:30.904Z,33.97
2023-11-30T09:54:58.070Z,29.05
2023-11-30T09:57:24.706Z,40.47
2023-11-30T09:59:51.910Z,37.88
2023-11-30T10:02:19.659Z,32.22
2023-11-30T10:04:47.091Z,30.75
2023-11-30T10:07:13.693Z,35.20
2023-11-30T10:09:40.355Z,29.88
2023-11-30T10:12:07.134Z,77.65
2023-11-30T10:14:34.162Z,30.30
2023-11-30T10:17:01.342Z,36.67
2023-11-30T10:19:29.012Z,37.33
2023-11-30T10:21:56.931Z,31.08
2023-11-30T10:24:25.108Z,35.35
2023-11-30T10:26:58.193Z,35.92
2023-11-30T10:29:24.996Z,48.58
2023-11-30T10:31:54.637Z,35.95
2023-11-30T10:34:29.617Z,36.55
2023-11-30T10:36:58.494Z,40.60
2023-11-30T10:39:27.251Z,52.17
2023-11-30T10:41:54.829Z,74.85
2023-11-30T10:44:24.416Z,73.80
2023-11-30T10:46:52.067Z,58.70
2023-11-30T10:49:19.176Z,55.75
2023-11-30T10:51:45.789Z,53.38
2023-11-30T10:54:22.176Z,46.20
2023-11-30T10:56:49.081Z,41.15
2023-11-30T10:59:16.126Z,43.38
2023-11-30T11:01:51.790Z,42.80
2023-11-30T11:04:18.734Z,35.65
2023-11-30T11:06:45.434Z,37.58
2023-11-30T11:09:16.769Z,32.70
2023-11-30T11:11:46.465Z,32.90
2023-11-30T11:14:26.185Z,38.03
2023-11-30T11:17:03.168Z,36.42
2023-11-30T11:19:31.657Z,36.72
2023-11-30T11:21:58.356Z,35.92
2023-11-30T11:24:28.409Z,45.53
2023-11-30T11:26:59.629Z,45.95
2023-11-30T11:29:31.110Z,42.10
2023-11-30T11:32:05.567Z,44.47
2023-11-30T11:34:33.281Z,43.90
2023-11-30T11:36:59.911Z,36.95
2023-11-30T11:39:26.817Z,37.40
2023-11-30T11:41:53.846Z,40.63
2023-11-30T11:44:22.555Z,43.38
2023-11-30T11:46:50.125Z,40.33
2023-11-30T11:49:16.771Z,41.70
2023-11-30T11:51:47.687Z,35.67
2023-11-30T11:54:22.155Z,32.33
2023-11-30T11:56:50.071Z,30.80
2023-11-30T11:59:20.470Z,39.80
2023-11-30T12:01:51.590Z,39.25
2023-11-30T12:04:31.766Z,38.45
2023-11-30T12:06:59.581Z,35.25
2023-11-30T12:09:26.392Z,34.92
2023-11-30T12:11:53.572Z,36.33
2023-11-30T12:14:21.695Z,32.75
2023-11-30T12:16:48.566Z,40.00
2023-11-30T12:19:20.609Z,41.63
2023-11-30T12:21:47.963Z,34.22
2023-11-30T12:24:14.853Z,37.75
2023-11-30T12:26:41.897Z,37.22
2023-11-30T12:29:11.439Z,38.15
2023-11-30T12:31:38.317Z,39.13
2023-11-30T12:34:05.623Z,36.42
2023-11-30T12:36:32.388Z,42.78
2023-11-30T12:38:59.324Z,39.28
2023-11-30T12:41:26.194Z,39.22
2023-11-30T12:43:52.928Z,36.08
2023-11-30T12:46:19.819Z,30.67
2023-11-30T12:48:47.439Z,43.03
2023-11-30T12:51:14.245Z,48.75
2023-11-30T12:53:41.072Z,38.47
2023-11-30T12:56:08.546Z,38.63
2023-11-30T12:58:37.367Z,36.53
2023-11-30T13:01:04.476Z,36.35
2023-11-30T13:03:31.228Z,35.53
2023-11-30T13:05:57.946Z,42.95
2023-11-30T13:08:24.720Z,41.05
2023-11-30T13:10:51.561Z,40.28
2023-11-30T13:13:18.284Z,37.50
2023-11-30T13:15:46.616Z,36.95
2023-11-30T13:18:13.481Z,36.53
2023-11-30T13:20:40.223Z,41.08
2023-11-30T13:23:08.649Z,37.53
2023-11-30T13:25:35.386Z,39.85
2023-11-30T13:28:02.169Z,38.60
2023-11-30T13:30:30.140Z,45.75
2023-11-30T13:32:57.547Z,34.42
2023-11-30T13:35:25.235Z,35.92
2023-11-30T13:37:51.975Z,42.75
2023-11-30T13:40:20.723Z,39.67
2023-11-30T13:42:47.384Z,44.47
2023-11-30T13:45:14.091Z,34.10
2023-11-30T13:47:49.043Z,37.28
2023-11-30T13:50:26.304Z,35.78
2023-11-30T13:53:05.261Z,41.08
2023-11-30T13:55:34.251Z,43.20
2023-11-30T13:58:01.281Z,41.65
2023-11-30T14:00:30.530Z,37.30
2023-11-30T14:02:57.542Z,43.92
2023-11-30T14:05:24.367Z,43.45
2023-11-30T14:07:51.292Z,38.15
2023-11-30T14:10:18.316Z,45.03
2023-11-30T14:12:45.133Z,37.55
2023-11-30T14:15:16.803Z,40.67
2023-11-30T14:17:46.821Z,41.33
2023-11-30T14:20:13.939Z,40.17
2023-11-30T14:22:40.776Z,47.50
2023-11-30T14:25:13.798Z,38.58
2023-11-30T14:27:45.683Z,40.80
2023-11-30T14:30:18.039Z,44.63
2023-11-30T14:32:46.032Z,54.38
2023-11-30T14:35:18.721Z,38.75
2023-11-30T14:37:46.945Z,45.05
2023-11-30T14:40:15.032Z,65.03
2023-11-30T14:43:11.780Z,67.28
2023-11-30T14:45:48.630Z,61.83
2023-11-30T14:48:28.482Z,46.33
2023-11-30T14:50:56.116Z,45.38
2023-11-30T14:53:23.532Z,42.50
2023-11-30T14:55:54.279Z,45.20
2023-11-30T14:58:27.636Z,45.25
2023-11-30T15:01:02.037Z,47.70
2023-11-30T15:03:29.211Z,43.50
2023-11-30T15:05:57.411Z,51.08
2023-11-30T15:08:28.966Z,46.38
2023-11-30T15:13:44.976Z,48.38
2023-11-30T15:16:11.849Z,48.55
2023-11-30T15:18:41.241Z,47.28
2023-11-30T15:21:10.022Z,44.92
2023-11-30T15:23:40.188Z,48.53
2023-11-30T15:26:29.652Z,52.42
2023-11-30T15:29:01.545Z,43.35
2023-11-30T15:31:28.435Z,50.20
2023-11-30T15:33:58.668Z,44.53
2023-11-30T15:36:25.881Z,62.25
2023-11-30T15:38:59.045Z,43.28
2023-11-30T15:43:52.907Z,38.53
2023-11-30T15:46:19.998Z,41.80
2023-11-30T15:48:56.705Z,46.03
2023-11-30T15:51:23.838Z,40.15
2023-11-30T15:53:52.940Z,43.63
2023-11-30T15:56:27.233Z,46.17
2023-11-30T15:58:55.057Z,46.95
2023-11-30T16:01:25.769Z,46.22
2023-11-30T16:03:54.891Z,51.30
2023-11-30T16:06:22.465Z,57.85
2023-11-30T16:08:49.577Z,50.28
2023-11-30T16:11:19.765Z,44.50
2023-11-30T16:13:46.756Z,55.72
2023-11-30T16:16:15.132Z,49.33
2023-11-30T16:18:43.773Z,56.63
2023-11-30T16:21:16.249Z,53.00
2023-11-30T16:23:43.804Z,50.00
2023-11-30T16:26:19.076Z,52.45
2023-11-30T16:28:50.245Z,46.88
2023-11-30T16:31:17.310Z,70.22
2023-11-30T16:33:44.289Z,60.85
2023-11-30T16:36:12.641Z,63.15
2023-11-30T16:38:39.363Z,45.85
2023-11-30T16:41:07.948Z,49.17
2023-11-30T16:43:43.705Z,55.80
2023-11-30T16:46:13.971Z,60.10
2023-11-30T16:48:45.346Z,63.15
2023-11-30T16:51:14.776Z,57.47
2023-11-30T16:53:41.669Z,52.67
2023-11-30T16:56:08.699Z,47.72
2023-11-30T16:58:35.395Z,48.90
2023-11-30T17:01:23.199Z,46.22
2023-11-30T17:03:50.103Z,51.65
2023-11-30T17:06:17.582Z,44.58
2023-11-30T17:08:44.441Z,45.17
2023-11-30T17:11:11.267Z,44.47
2023-11-30T17:13:38.161Z,48.85
2023-11-30T17:16:07.061Z,53.92
2023-11-30T17:18:36.370Z,57.97
2023-11-30T17:21:03.355Z,42.95
2023-11-30T17:23:32.999Z,47.92
2023-11-30T17:25:59.762Z,56.42
2023-11-30T17:28:26.566Z,53.20
2023-11-30T17:30:58.400Z,54.72
2023-11-30T17:33:26.276Z,121.75
2023-11-30T17:35:53.181Z,143.65
2023-11-30T17:38:20.003Z,135.60
2023-11-30T17:40:46.749Z,87.57
2023-11-30T17:43:14.101Z,92.00
2023-11-30T17:45:41.030Z,81.35
2023-11-30T17:48:08.039Z,65.10
2023-11-30T17:50:34.923Z,75.57
2023-11-30T17:53:04.416Z,56.67
2023-11-30T17:55:32.232Z,55.13
2023-11-30T17:57:59.305Z,60.53
2023-11-30T18:00:27.308Z,51.10
2023-11-30T18:02:55.424Z,62.92
2023-11-30T18:05:22.288Z,56.75
2023-11-30T18:07:48.978Z,64.05
2023-11-30T18:10:15.815Z,58.45
2023-11-30T18:12:42.617Z,62.38
2023-11-30T18:15:09.843Z,55.65
2023-11-30T18:17:36.731Z,57.45
2023-11-30T18:20:03.591Z,51.65
2023-11-30T18:22:34.329Z,57.20
2023-11-30T18:25:01.633Z,66.28
2023-11-30T18:27:28.529Z,45.88
2023-11-30T18:29:55.479Z,59.55
2023-11-30T18:32:22.469Z,52.85
2023-11-30T18:34:49.288Z,51.17
2023-11-30T18:37:16.285Z,53.42
2023-11-30T18:39:43.049Z,58.63
2023-11-30T18:42:09.904Z,53.22
2023-11-30T18:44:36.701Z,54.65
2023-11-30T18:47:04.193Z,59.03
2023-11-30T18:49:31.123Z,52.90
2023-11-30T18:52:00.542Z,79.95
2023-11-30T18:54:27.658Z,73.38
2023-11-30T18:56:54.553Z,62.33
2023-11-30T18:59:23.787Z,58.10
2023-11-30T19:01:50.623Z,59.47
2023-11-30T19:04:17.592Z,56.90
2023-11-30T19:06:44.456Z,56.08
2023-11-30T19:09:11.203Z,57.83
2023-11-30T19:11:38.738Z,57.42
2023-11-30T19:14:05.489Z,69.88
2023-11-30T19:16:32.434Z,73.20
2023-11-30T19:18:59.399Z,58.88
2023-11-30T19:21:28.560Z,57.50
2023-11-30T19:23:56.255Z,54.22
2023-11-30T19:26:23.196Z,56.05
2023-11-30T19:28:49.987Z,60.65
2023-11-30T19:31:17.063Z,48.25
2023-11-30T19:33:43.969Z,51.28
2023-11-30T19:36:11.058Z,55.35
2023-11-30T19:38:37.879Z,51.22
2023-11-30T19:41:04.771Z,56.00
2023-11-30T19:43:31.476Z,56.88
2023-11-30T19:46:03.057Z,49.92
2023-11-30T19:48:30.548Z,53.90
2023-11-30T19:50:57.524Z,50.72
2023-11-30T19:53:24.366Z,54.20
2023-11-30T19:55:52.231Z,49.08
2023-11-30T19:58:18.938Z,47.10
2023-11-30T20:00:48.257Z,50.38
2023-11-30T20:03:15.096Z,51.03
2023-11-30T20:05:41.915Z,58.70
2023-11-30T20:08:08.808Z,49.30
2023-11-30T20:10:35.608Z,57.75
2023-11-30T20:13:03.809Z,45.78
2023-11-30T20:15:31.683Z,54.58
2023-11-30T20:17:58.600Z,48.30
2023-11-30T20:20:25.665Z,49.35
2023-11-30T20:22:52.526Z,61.00
2023-11-30T20:25:19.530Z,63.72
2023-11-30T20:27:46.351Z,64.65
2023-11-30T20:30:13.467Z,71.03
2023-11-30T20:32:40.813Z,83.57
2023-11-30T20:35:08.019Z,50.42
2023-11-30T20:37:34.810Z,55.08
2023-11-30T20:40:01.631Z,58.58
2023-11-30T20:42:28.839Z,51.97
2023-11-30T20:44:55.720Z,50.90
2023-11-30T20:47:24.828Z,65.18
2023-11-30T20:49:51.889Z,47.58
2023-11-30T20:52:20.782Z,46.15
2023-11-30T20:54:47.537Z,52.67
2023-11-30T20:57:14.745Z,57.20
2023-11-30T20:59:42.874Z,48.05
2023-11-30T21:02:10.271Z,49.88
2023-11-30T21:04:37.747Z,54.95
2023-11-30T21:07:05.122Z,59.00
2023-11-30T21:09:33.114Z,45.15
2023-11-30T21:12:00.436Z,51.05
2023-11-30T21:14:27.217Z,51.92
2023-11-30T21:16:54.175Z,47.35
2023-11-30T21:19:20.952Z,44.63
2023-11-30T21:21:48.448Z,45.70
2023-11-30T21:24:15.552Z,47.15
2023-11-30T21:26:42.510Z,60.83
2023-11-30T21:29:09.182Z,54.05
2023-11-30T21:31:36.030Z,45.75
2023-11-30T21:34:02.852Z,42.15
2023-11-30T21:36:29.628Z,45.35
2023-11-30T21:38:56.367Z,49.05
2023-11-30T21:41:23.442Z,49.80
2023-11-30T21:43:50.248Z,48.78
2023-11-30T21:46:17.960Z,50.10
2023-11-30T21:48:44.894Z,45.38
2023-11-30T21:51:12.281Z,43.70
2023-11-30T21:53:39.000Z,60.70
2023-11-30T21:56:05.973Z,69.60
2023-11-30T21:58:34.289Z,64.82
2023-11-30T22:01:01.187Z,47.65
2023-11-30T22:03:28.153Z,49.63
2023-11-30T22:05:55.056Z,47.45
2023-11-30T22:08:21.787Z,45.67
2023-11-30T22:10:48.633Z,44.63
2023-11-30T22:13:15.463Z,42.75
2023-11-30T22:15:42.203Z,51.15
2023-11-30T22:18:08.887Z,44.92
2023-11-30T22:20:35.700Z,45.80
2023-11-30T22:23:02.888Z,40.25
2023-11-30T22:25:29.573Z,42.00
2023-11-30T22:27:56.377Z,46.47
2023-11-30T22:30:23.118Z,40.95
2023-11-30T22:32:51.161Z,47.72
2023-11-30T22:35:18.348Z,53.15
2023-11-30T22:37:45.609Z,50.03
2023-11-30T22:40:12.807Z,53.28
2023-11-30T22:42:39.785Z,44.85
2023-11-30T22:45:06.936Z,48.67
2023-11-30T22:47:34.866Z,52.00
2023-11-30T22:50:07.676Z,54.17
2023-11-30T22:52:34.918Z,70.85
2023-11-30T22:55:01.938Z,48.42
2023-11-30T22:57:30.170Z,48.25
2023-11-30T22:59:57.132Z,55.13
2023-11-30T23:02:28.374Z,44.72
2023-11-30T23:04:56.336Z,49.72
2023-11-30T23:07:24.789Z,43.63
2023-11-30T23:09:51.734Z,44.70
2023-11-30T23:12:18.525Z,42.88
2023-11-30T23:14:45.993Z,51.20
2023-11-30T23:17:15.057Z,50.78
2023-11-30T23:19:41.912Z,53.55
2023-11-30T23:22:09.807Z,55.25
2023-11-30T23:24:41.231Z,53.17
2023-11-30T23:27:10.332Z,50.50
2023-11-30T23:29:41.612Z,50.63
2023-11-30T23:32:08.471Z,43.58
2023-11-30T23:34:35.465Z,47.58
2023-11-30T23:37:04.197Z,51.40
2023-11-30T23:39:31.132Z,46.38
2023-11-30T23:42:02.570Z,48.75
2023-11-30T23:44:29.437Z,52.13
2023-11-30T23:47:00.646Z,54.33
2023-11-30T23:49:31.990Z,44.53
2023-11-30T23:51:59.291Z,59.13
2023-11-30T23:54:26.325Z,53.10
2023-11-30T23:56:53.218Z,45.92
2023-11-30T23:59:19.970Z,47.15
